sensor_id;sensor_type;location;lat;lon;timestamp;temperature;humidity
13086;DHT22;6609;49.882;8.664;2023-05-09T00:00:44;16.60;92.30
13086;DHT22;6609;49.882;8.664;2023-05-09T00:05:38;16.60;92.40
13086;DHT22;6609;49.882;8.664;2023-05-09T00:08:06;16.60;92.40
13086;DHT22;6609;49.882;8.664;2023-05-09T00:10:34;16.70;92.40
13086;DHT22;6609;49.882;8.664;2023-05-09T00:17:56;16.60;92.60
13086;DHT22;6609;49.882;8.664;2023-05-09T00:22:50;16.70;92.60
13086;DHT22;6609;49.882;8.664;2023-05-09T00:25:17;16.70;92.60
13086;DHT22;6609;49.882;8.664;2023-05-09T00:27:45;16.70;92.40
13086;DHT22;6609;49.882;8.664;2023-05-09T00:30:12;16.70;92.40
13086;DHT22;6609;49.882;8.664;2023-05-09T00:32:38;16.70;92.40
13086;DHT22;6609;49.882;8.664;2023-05-09T00:35:06;16.70;92.20
13086;DHT22;6609;49.882;8.664;2023-05-09T00:37:34;16.70;92.20
13086;DHT22;6609;49.882;8.664;2023-05-09T00:44:56;16.70;92.20
13086;DHT22;6609;49.882;8.664;2023-05-09T00:47:23;16.60;92.20
13086;DHT22;6609;49.882;8.664;2023-05-09T00:52:17;16.60;92.20
13086;DHT22;6609;49.882;8.664;2023-05-09T00:54:47;16.60;92.20
13086;DHT22;6609;49.882;8.664;2023-05-09T00:57:15;16.60;92.10
13086;DHT22;6609;49.882;8.664;2023-05-09T01:02:10;16.60;92.20
13086;DHT22;6609;49.882;8.664;2023-05-09T01:07:15;16.50;92.30
13086;DHT22;6609;49.882;8.664;2023-05-09T01:09:52;16.60;92.40
13086;DHT22;6609;49.882;8.664;2023-05-09T01:12:26;16.60;92.40
13086;DHT22;6609;49.882;8.664;2023-05-09T01:14:59;16.60;92.30
13086;DHT22;6609;49.882;8.664;2023-05-09T01:17:37;16.60;92.30
13086;DHT22;6609;49.882;8.664;2023-05-09T01:20:12;16.60;92.30
13086;DHT22;6609;49.882;8.664;2023-05-09T01:22:46;16.60;92.30
13086;DHT22;6609;49.882;8.664;2023-05-09T01:28:12;16.50;92.40
13086;DHT22;6609;49.882;8.664;2023-05-09T01:30:44;16.50;92.50
13086;DHT22;6609;49.882;8.664;2023-05-09T01:33:15;16.40;92.60
13086;DHT22;6609;49.882;8.664;2023-05-09T01:35:45;16.30;92.70
13086;DHT22;6609;49.882;8.664;2023-05-09T01:38:17;16.30;92.90
13086;DHT22;6609;49.882;8.664;2023-05-09T01:40:47;16.30;92.90
13086;DHT22;6609;49.882;8.664;2023-05-09T01:43:15;16.30;93.00
13086;DHT22;6609;49.882;8.664;2023-05-09T01:45:45;16.30;93.00
13086;DHT22;6609;49.882;8.664;2023-05-09T01:48:13;16.40;93.00
13086;DHT22;6609;49.882;8.664;2023-05-09T01:50:42;16.40;93.00
13086;DHT22;6609;49.882;8.664;2023-05-09T01:53:10;16.30;93.10
13086;DHT22;6609;49.882;8.664;2023-05-09T01:55:38;16.30;93.10
13086;DHT22;6609;49.882;8.664;2023-05-09T01:58:06;16.20;93.10
13086;DHT22;6609;49.882;8.664;2023-05-09T02:00:33;16.30;93.10
13086;DHT22;6609;49.882;8.664;2023-05-09T02:03:03;16.20;93.10
13086;DHT22;6609;49.882;8.664;2023-05-09T02:05:30;16.20;93.20
13086;DHT22;6609;49.882;8.664;2023-05-09T02:10:25;16.10;93.30
13086;DHT22;6609;49.882;8.664;2023-05-09T02:12:53;16.20;93.30
13086;DHT22;6609;49.882;8.664;2023-05-09T02:15:20;16.20;93.20
13086;DHT22;6609;49.882;8.664;2023-05-09T02:20:15;16.20;93.10
13086;DHT22;6609;49.882;8.664;2023-05-09T02:22:42;16.20;93.10
13086;DHT22;6609;49.882;8.664;2023-05-09T02:25:11;16.20;93.10
13086;DHT22;6609;49.882;8.664;2023-05-09T02:27:40;16.10;93.10
13086;DHT22;6609;49.882;8.664;2023-05-09T02:30:10;16.10;93.20
13086;DHT22;6609;49.882;8.664;2023-05-09T02:32:38;16.10;93.20
13086;DHT22;6609;49.882;8.664;2023-05-09T02:35:06;16.10;93.20
13086;DHT22;6609;49.882;8.664;2023-05-09T02:37:36;15.90;93.10
13086;DHT22;6609;49.882;8.664;2023-05-09T02:40:06;16.00;93.30
13086;DHT22;6609;49.882;8.664;2023-05-09T02:42:33;16.00;93.50
13086;DHT22;6609;49.882;8.664;2023-05-09T02:45:00;16.00;93.50
13086;DHT22;6609;49.882;8.664;2023-05-09T02:52:21;16.00;93.50
13086;DHT22;6609;49.882;8.664;2023-05-09T02:54:49;15.90;93.50
13086;DHT22;6609;49.882;8.664;2023-05-09T02:57:15;15.90;93.60
13086;DHT22;6609;49.882;8.664;2023-05-09T03:02:09;15.90;93.50
13086;DHT22;6609;49.882;8.664;2023-05-09T03:04:36;15.90;93.50
13086;DHT22;6609;49.882;8.664;2023-05-09T03:07:03;15.80;93.50
13086;DHT22;6609;49.882;8.664;2023-05-09T03:11:58;15.90;93.40
13086;DHT22;6609;49.882;8.664;2023-05-09T03:24:13;15.70;93.60
13086;DHT22;6609;49.882;8.664;2023-05-09T03:26:39;15.60;93.60
13086;DHT22;6609;49.882;8.664;2023-05-09T03:29:07;15.60;93.70
13086;DHT22;6609;49.882;8.664;2023-05-09T03:31:34;15.50;93.80
13086;DHT22;6609;49.882;8.664;2023-05-09T03:36:28;15.50;94.00
13086;DHT22;6609;49.882;8.664;2023-05-09T03:38:56;15.50;94.00
13086;DHT22;6609;49.882;8.664;2023-05-09T03:41:23;15.40;94.20
13086;DHT22;6609;49.882;8.664;2023-05-09T03:46:18;15.30;94.30
13086;DHT22;6609;49.882;8.664;2023-05-09T03:48:44;15.30;94.40
13086;DHT22;6609;49.882;8.664;2023-05-09T03:51:11;15.20;94.30
13086;DHT22;6609;49.882;8.664;2023-05-09T03:53:38;15.20;94.40
13086;DHT22;6609;49.882;8.664;2023-05-09T03:56:05;15.20;94.40
13086;DHT22;6609;49.882;8.664;2023-05-09T03:58:32;15.20;94.50
13086;DHT22;6609;49.882;8.664;2023-05-09T04:03:27;15.20;94.60
13086;DHT22;6609;49.882;8.664;2023-05-09T04:05:53;15.20;94.70
13086;DHT22;6609;49.882;8.664;2023-05-09T04:08:20;15.20;94.70
13086;DHT22;6609;49.882;8.664;2023-05-09T04:13:14;15.30;94.50
13086;DHT22;6609;49.882;8.664;2023-05-09T04:15:40;15.30;94.50
13086;DHT22;6609;49.882;8.664;2023-05-09T04:18:07;15.30;94.30
13086;DHT22;6609;49.882;8.664;2023-05-09T04:20:35;15.30;94.40
13086;DHT22;6609;49.882;8.664;2023-05-09T04:23:02;15.30;94.30
13086;DHT22;6609;49.882;8.664;2023-05-09T04:27:56;15.30;94.40
13086;DHT22;6609;49.882;8.664;2023-05-09T04:30:23;15.30;94.40
13086;DHT22;6609;49.882;8.664;2023-05-09T04:37:48;15.30;94.60
13086;DHT22;6609;49.882;8.664;2023-05-09T04:40:14;15.30;94.50
13086;DHT22;6609;49.882;8.664;2023-05-09T04:45:09;15.10;94.60
13086;DHT22;6609;49.882;8.664;2023-05-09T04:47:36;15.10;94.80
13086;DHT22;6609;49.882;8.664;2023-05-09T04:50:03;15.20;94.80
13086;DHT22;6609;49.882;8.664;2023-05-09T04:52:30;15.30;94.80
13086;DHT22;6609;49.882;8.664;2023-05-09T04:54:58;15.30;94.70
13086;DHT22;6609;49.882;8.664;2023-05-09T04:57:25;15.40;94.70
13086;DHT22;6609;49.882;8.664;2023-05-09T04:59:52;15.40;94.60
13086;DHT22;6609;49.882;8.664;2023-05-09T05:02:18;15.40;94.60
13086;DHT22;6609;49.882;8.664;2023-05-09T05:04:45;15.40;94.60
13086;DHT22;6609;49.882;8.664;2023-05-09T05:07:12;15.40;94.60
13086;DHT22;6609;49.882;8.664;2023-05-09T05:12:07;15.50;94.80
13086;DHT22;6609;49.882;8.664;2023-05-09T05:14:34;15.50;94.70
13086;DHT22;6609;49.882;8.664;2023-05-09T05:19:27;15.50;94.90
13086;DHT22;6609;49.882;8.664;2023-05-09T05:21:54;15.60;94.70
13086;DHT22;6609;49.882;8.664;2023-05-09T05:29:16;15.80;94.80
13086;DHT22;6609;49.882;8.664;2023-05-09T05:34:10;16.00;94.60
13086;DHT22;6609;49.882;8.664;2023-05-09T05:36:36;16.10;94.40
13086;DHT22;6609;49.882;8.664;2023-05-09T05:41:30;16.20;94.10
13086;DHT22;6609;49.882;8.664;2023-05-09T05:43:57;16.20;94.20
13086;DHT22;6609;49.882;8.664;2023-05-09T05:46:25;16.20;94.20
13086;DHT22;6609;49.882;8.664;2023-05-09T05:51:18;16.30;94.00
13086;DHT22;6609;49.882;8.664;2023-05-09T05:56:12;16.50;93.80
13086;DHT22;6609;49.882;8.664;2023-05-09T05:58:39;16.50;93.70
13086;DHT22;6609;49.882;8.664;2023-05-09T06:03:34;16.60;93.70
13086;DHT22;6609;49.882;8.664;2023-05-09T06:08:27;16.70;93.80
13086;DHT22;6609;49.882;8.664;2023-05-09T06:10:54;16.80;93.70
13086;DHT22;6609;49.882;8.664;2023-05-09T06:15:48;16.90;93.20
13086;DHT22;6609;49.882;8.664;2023-05-09T06:20:43;17.00;92.80
13086;DHT22;6609;49.882;8.664;2023-05-09T06:23:09;17.00;92.60
13086;DHT22;6609;49.882;8.664;2023-05-09T06:25:36;17.10;92.50
13086;DHT22;6609;49.882;8.664;2023-05-09T06:28:03;17.10;92.40
13086;DHT22;6609;49.882;8.664;2023-05-09T06:30:29;17.20;92.30
13086;DHT22;6609;49.882;8.664;2023-05-09T06:32:56;17.30;92.30
13086;DHT22;6609;49.882;8.664;2023-05-09T06:35:24;17.40;92.10
13086;DHT22;6609;49.882;8.664;2023-05-09T06:37:52;17.40;91.90
13086;DHT22;6609;49.882;8.664;2023-05-09T06:40:19;17.60;91.70
13086;DHT22;6609;49.882;8.664;2023-05-09T06:45:13;17.60;91.50
13086;DHT22;6609;49.882;8.664;2023-05-09T06:50:07;17.60;91.20
13086;DHT22;6609;49.882;8.664;2023-05-09T06:55:03;17.60;91.20
13086;DHT22;6609;49.882;8.664;2023-05-09T06:57:29;17.60;91.00
13086;DHT22;6609;49.882;8.664;2023-05-09T07:02:23;17.70;90.80
13086;DHT22;6609;49.882;8.664;2023-05-09T07:07:17;17.70;90.60
13086;DHT22;6609;49.882;8.664;2023-05-09T07:09:43;17.80;90.50
13086;DHT22;6609;49.882;8.664;2023-05-09T07:12:11;17.80;90.20
13086;DHT22;6609;49.882;8.664;2023-05-09T07:14:38;17.80;90.40
13086;DHT22;6609;49.882;8.664;2023-05-09T07:17:06;17.80;90.40
13086;DHT22;6609;49.882;8.664;2023-05-09T07:22:00;17.90;90.10
13086;DHT22;6609;49.882;8.664;2023-05-09T07:24:26;18.00;90.10
13086;DHT22;6609;49.882;8.664;2023-05-09T07:29:21;18.10;90.00
13086;DHT22;6609;49.882;8.664;2023-05-09T07:39:11;18.40;88.00
13086;DHT22;6609;49.882;8.664;2023-05-09T07:41:38;18.30;86.90
13086;DHT22;6609;49.882;8.664;2023-05-09T07:44:05;18.40;86.90
13086;DHT22;6609;49.882;8.664;2023-05-09T07:46:35;18.40;86.90
13086;DHT22;6609;49.882;8.664;2023-05-09T07:49:02;18.40;86.90
13086;DHT22;6609;49.882;8.664;2023-05-09T07:51:29;18.40;86.90
13086;DHT22;6609;49.882;8.664;2023-05-09T07:56:23;18.50;86.20
13086;DHT22;6609;49.882;8.664;2023-05-09T08:01:17;18.50;85.70
13086;DHT22;6609;49.882;8.664;2023-05-09T08:03:45;18.50;85.70
13086;DHT22;6609;49.882;8.664;2023-05-09T08:06:13;18.40;85.70
13086;DHT22;6609;49.882;8.664;2023-05-09T08:11:07;18.40;85.60
13086;DHT22;6609;49.882;8.664;2023-05-09T08:13:34;18.40;85.90
13086;DHT22;6609;49.882;8.664;2023-05-09T08:16:00;18.40;86.10
13086;DHT22;6609;49.882;8.664;2023-05-09T08:20:55;18.40;85.80
13086;DHT22;6609;49.882;8.664;2023-05-09T08:23:24;18.40;85.70
13086;DHT22;6609;49.882;8.664;2023-05-09T08:25:52;18.40;85.70
13086;DHT22;6609;49.882;8.664;2023-05-09T08:28:19;18.40;85.90
13086;DHT22;6609;49.882;8.664;2023-05-09T08:35:40;18.40;85.90
13086;DHT22;6609;49.882;8.664;2023-05-09T08:38:08;18.40;86.00
13086;DHT22;6609;49.882;8.664;2023-05-09T08:43:04;18.40;86.30
13086;DHT22;6609;49.882;8.664;2023-05-09T08:45:34;18.50;86.30
13086;DHT22;6609;49.882;8.664;2023-05-09T08:48:02;18.50;86.20
13086;DHT22;6609;49.882;8.664;2023-05-09T08:50:29;18.50;86.10
13086;DHT22;6609;49.882;8.664;2023-05-09T08:52:55;18.60;86.10
13086;DHT22;6609;49.882;8.664;2023-05-09T08:55:23;18.60;86.00
13086;DHT22;6609;49.882;8.664;2023-05-09T08:57:51;18.70;85.90
13086;DHT22;6609;49.882;8.664;2023-05-09T09:00:18;18.80;85.60
13086;DHT22;6609;49.882;8.664;2023-05-09T09:02:46;18.80;84.90
13086;DHT22;6609;49.882;8.664;2023-05-09T09:05:13;18.80;84.80
13086;DHT22;6609;49.882;8.664;2023-05-09T09:07:40;18.80;84.90
13086;DHT22;6609;49.882;8.664;2023-05-09T09:10:09;18.80;84.80
13086;DHT22;6609;49.882;8.664;2023-05-09T09:12:38;18.80;85.00
13086;DHT22;6609;49.882;8.664;2023-05-09T09:15:08;18.80;85.00
13086;DHT22;6609;49.882;8.664;2023-05-09T09:17:39;18.80;85.20
13086;DHT22;6609;49.882;8.664;2023-05-09T09:20:10;18.70;85.10
13086;DHT22;6609;49.882;8.664;2023-05-09T09:22:41;18.80;85.40
13086;DHT22;6609;49.882;8.664;2023-05-09T09:25:09;18.90;85.40
13086;DHT22;6609;49.882;8.664;2023-05-09T09:27:37;18.90;85.10
13086;DHT22;6609;49.882;8.664;2023-05-09T09:30:06;19.00;85.00
13086;DHT22;6609;49.882;8.664;2023-05-09T09:35:05;19.20;84.60
13086;DHT22;6609;49.882;8.664;2023-05-09T09:37:32;19.40;84.30
13086;DHT22;6609;49.882;8.664;2023-05-09T09:42:26;19.80;83.00
13086;DHT22;6609;49.882;8.664;2023-05-09T09:45:01;19.70;81.20
13086;DHT22;6609;49.882;8.664;2023-05-09T09:47:31;19.60;81.70
13086;DHT22;6609;49.882;8.664;2023-05-09T09:50:08;19.50;81.80
13086;DHT22;6609;49.882;8.664;2023-05-09T09:52:36;19.40;82.00
13086;DHT22;6609;49.882;8.664;2023-05-09T09:57:33;19.30;82.50
13086;DHT22;6609;49.882;8.664;2023-05-09T10:00:03;19.20;83.50
13086;DHT22;6609;49.882;8.664;2023-05-09T10:05:05;19.00;89.90
13086;DHT22;6609;49.882;8.664;2023-05-09T10:07:33;18.90;90.90
13086;DHT22;6609;49.882;8.664;2023-05-09T10:09:59;18.90;91.80
13086;DHT22;6609;49.882;8.664;2023-05-09T10:12:32;18.90;92.50
13086;DHT22;6609;49.882;8.664;2023-05-09T10:15:02;19.10;93.20
13086;DHT22;6609;49.882;8.664;2023-05-09T10:17:29;19.10;93.50
13086;DHT22;6609;49.882;8.664;2023-05-09T10:19:59;19.20;93.30
13086;DHT22;6609;49.882;8.664;2023-05-09T10:22:29;19.30;93.40
13086;DHT22;6609;49.882;8.664;2023-05-09T10:25:01;19.50;93.40
13086;DHT22;6609;49.882;8.664;2023-05-09T10:27:30;19.60;93.40
13086;DHT22;6609;49.882;8.664;2023-05-09T10:30:05;19.70;93.20
13086;DHT22;6609;49.882;8.664;2023-05-09T10:32:40;19.90;93.20
13086;DHT22;6609;49.882;8.664;2023-05-09T10:35:10;20.10;92.90
13086;DHT22;6609;49.882;8.664;2023-05-09T10:37:38;20.10;92.50
13086;DHT22;6609;49.882;8.664;2023-05-09T10:40:06;20.10;92.30
13086;DHT22;6609;49.882;8.664;2023-05-09T10:42:33;20.10;91.90
13086;DHT22;6609;49.882;8.664;2023-05-09T10:45:02;20.00;91.40
13086;DHT22;6609;49.882;8.664;2023-05-09T10:47:29;20.00;91.50
13086;DHT22;6609;49.882;8.664;2023-05-09T10:50:00;20.00;91.80
13086;DHT22;6609;49.882;8.664;2023-05-09T10:52:30;20.00;91.60
13086;DHT22;6609;49.882;8.664;2023-05-09T10:54:58;20.00;91.60
13086;DHT22;6609;49.882;8.664;2023-05-09T10:57:26;20.00;91.40
13086;DHT22;6609;49.882;8.664;2023-05-09T10:59:54;20.00;91.30
13086;DHT22;6609;49.882;8.664;2023-05-09T11:02:23;20.00;91.30
13086;DHT22;6609;49.882;8.664;2023-05-09T11:05:14;20.00;91.50
13086;DHT22;6609;49.882;8.664;2023-05-09T11:07:41;20.00;91.30
13086;DHT22;6609;49.882;8.664;2023-05-09T11:10:09;20.20;91.00
13086;DHT22;6609;49.882;8.664;2023-05-09T11:12:52;20.30;90.40
13086;DHT22;6609;49.882;8.664;2023-05-09T11:15:20;20.40;89.30
13086;DHT22;6609;49.882;8.664;2023-05-09T11:17:50;20.50;88.00
13086;DHT22;6609;49.882;8.664;2023-05-09T11:22:44;20.60;87.10
13086;DHT22;6609;49.882;8.664;2023-05-09T11:25:12;20.60;86.00
13086;DHT22;6609;49.882;8.664;2023-05-09T11:27:41;20.50;85.20
13086;DHT22;6609;49.882;8.664;2023-05-09T11:30:10;20.50;85.30
13086;DHT22;6609;49.882;8.664;2023-05-09T11:32:43;20.60;85.10
13086;DHT22;6609;49.882;8.664;2023-05-09T11:35:13;20.70;83.40
13086;DHT22;6609;49.882;8.664;2023-05-09T11:37:47;20.80;82.30
13086;DHT22;6609;49.882;8.664;2023-05-09T11:40:15;20.80;81.80
13086;DHT22;6609;49.882;8.664;2023-05-09T11:42:43;20.70;81.60
13086;DHT22;6609;49.882;8.664;2023-05-09T11:45:11;20.60;81.90
13086;DHT22;6609;49.882;8.664;2023-05-09T11:47:39;20.60;81.70
13086;DHT22;6609;49.882;8.664;2023-05-09T11:50:07;20.50;81.50
13086;DHT22;6609;49.882;8.664;2023-05-09T11:52:36;20.50;81.50
13086;DHT22;6609;49.882;8.664;2023-05-09T11:55:05;20.50;81.50
13086;DHT22;6609;49.882;8.664;2023-05-09T11:57:33;20.60;82.10
13086;DHT22;6609;49.882;8.664;2023-05-09T12:00:01;20.60;82.70
13086;DHT22;6609;49.882;8.664;2023-05-09T12:02:29;20.70;82.80
13086;DHT22;6609;49.882;8.664;2023-05-09T12:04:56;20.60;81.70
13086;DHT22;6609;49.882;8.664;2023-05-09T12:09:52;20.50;79.10
13086;DHT22;6609;49.882;8.664;2023-05-09T12:12:18;20.60;79.40
13086;DHT22;6609;49.882;8.664;2023-05-09T12:14:47;20.70;79.30
13086;DHT22;6609;49.882;8.664;2023-05-09T12:19:41;21.00;78.60
13086;DHT22;6609;49.882;8.664;2023-05-09T12:22:07;21.10;78.80
13086;DHT22;6609;49.882;8.664;2023-05-09T12:24:35;21.20;78.50
13086;DHT22;6609;49.882;8.664;2023-05-09T12:27:04;21.20;77.60
13086;DHT22;6609;49.882;8.664;2023-05-09T12:29:32;21.40;76.10
13086;DHT22;6609;49.882;8.664;2023-05-09T12:31:59;21.60;74.60
13086;DHT22;6609;49.882;8.664;2023-05-09T12:34:26;21.80;72.60
13086;DHT22;6609;49.882;8.664;2023-05-09T12:36:53;22.10;72.10
13086;DHT22;6609;49.882;8.664;2023-05-09T12:39:20;22.30;71.80
13086;DHT22;6609;49.882;8.664;2023-05-09T12:41:47;22.40;68.90
13086;DHT22;6609;49.882;8.664;2023-05-09T12:46:55;22.60;67.80
13086;DHT22;6609;49.882;8.664;2023-05-09T12:49:24;22.80;66.80
13086;DHT22;6609;49.882;8.664;2023-05-09T12:51:51;22.80;63.50
13086;DHT22;6609;49.882;8.664;2023-05-09T12:54:19;22.70;64.10
13086;DHT22;6609;49.882;8.664;2023-05-09T12:59:23;22.60;65.00
13086;DHT22;6609;49.882;8.664;2023-05-09T13:01:52;22.60;65.40
13086;DHT22;6609;49.882;8.664;2023-05-09T13:04:20;22.50;66.10
13086;DHT22;6609;49.882;8.664;2023-05-09T13:06:48;22.50;66.30
13086;DHT22;6609;49.882;8.664;2023-05-09T13:09:16;22.40;66.40
13086;DHT22;6609;49.882;8.664;2023-05-09T13:11:43;22.30;66.10
13086;DHT22;6609;49.882;8.664;2023-05-09T13:14:10;22.20;65.40
13086;DHT22;6609;49.882;8.664;2023-05-09T13:16:38;22.30;66.30
13086;DHT22;6609;49.882;8.664;2023-05-09T13:21:33;22.10;65.30
13086;DHT22;6609;49.882;8.664;2023-05-09T13:24:00;22.10;65.00
13086;DHT22;6609;49.882;8.664;2023-05-09T13:26:27;22.10;65.70
13086;DHT22;6609;49.882;8.664;2023-05-09T13:28:54;22.10;65.70
13086;DHT22;6609;49.882;8.664;2023-05-09T13:31:20;22.20;65.60
13086;DHT22;6609;49.882;8.664;2023-05-09T13:33:49;22.20;65.20
13086;DHT22;6609;49.882;8.664;2023-05-09T13:41:10;22.10;65.20
13086;DHT22;6609;49.882;8.664;2023-05-09T13:43:38;21.90;64.70
13086;DHT22;6609;49.882;8.664;2023-05-09T13:48:32;21.90;65.50
13086;DHT22;6609;49.882;8.664;2023-05-09T13:51:00;21.80;65.20
13086;DHT22;6609;49.882;8.664;2023-05-09T13:58:21;21.90;65.60
13086;DHT22;6609;49.882;8.664;2023-05-09T14:08:10;22.20;63.60
13086;DHT22;6609;49.882;8.664;2023-05-09T14:13:04;22.30;63.10
13086;DHT22;6609;49.882;8.664;2023-05-09T14:15:33;22.40;63.20
13086;DHT22;6609;49.882;8.664;2023-05-09T14:18:00;22.40;63.00
13086;DHT22;6609;49.882;8.664;2023-05-09T14:20:28;22.40;62.30
13086;DHT22;6609;49.882;8.664;2023-05-09T14:22:55;22.40;62.40
13086;DHT22;6609;49.882;8.664;2023-05-09T14:25:26;22.30;62.10
13086;DHT22;6609;49.882;8.664;2023-05-09T14:30:19;22.10;62.20
13086;DHT22;6609;49.882;8.664;2023-05-09T14:37:41;21.80;63.50
13086;DHT22;6609;49.882;8.664;2023-05-09T14:40:08;21.80;63.40
13086;DHT22;6609;49.882;8.664;2023-05-09T14:42:37;21.70;64.20
13086;DHT22;6609;49.882;8.664;2023-05-09T14:45:05;21.60;67.80
13086;DHT22;6609;49.882;8.664;2023-05-09T14:57:20;20.50;81.70
13086;DHT22;6609;49.882;8.664;2023-05-09T14:59:48;20.30;84.90
13086;DHT22;6609;49.882;8.664;2023-05-09T15:07:09;20.10;88.60
13086;DHT22;6609;49.882;8.664;2023-05-09T15:09:36;20.00;89.50
13086;DHT22;6609;49.882;8.664;2023-05-09T15:14:30;20.00;90.50
13086;DHT22;6609;49.882;8.664;2023-05-09T15:16:58;20.10;90.70
13086;DHT22;6609;49.882;8.664;2023-05-09T15:19:27;20.10;91.00
13086;DHT22;6609;49.882;8.664;2023-05-09T15:31:44;20.30;92.60
13086;DHT22;6609;49.882;8.664;2023-05-09T15:34:12;20.30;92.60
13086;DHT22;6609;49.882;8.664;2023-05-09T15:36:38;20.30;92.60
13086;DHT22;6609;49.882;8.664;2023-05-09T15:39:05;20.30;92.70
13086;DHT22;6609;49.882;8.664;2023-05-09T15:48:55;20.40;92.90
13086;DHT22;6609;49.882;8.664;2023-05-09T15:51:23;20.40;93.00
13086;DHT22;6609;49.882;8.664;2023-05-09T15:53:53;20.30;92.90
13086;DHT22;6609;49.882;8.664;2023-05-09T15:56:20;20.30;93.00
13086;DHT22;6609;49.882;8.664;2023-05-09T16:03:41;20.30;93.00
13086;DHT22;6609;49.882;8.664;2023-05-09T16:08:36;20.20;93.40
13086;DHT22;6609;49.882;8.664;2023-05-09T16:11:03;20.20;93.50
13086;DHT22;6609;49.882;8.664;2023-05-09T16:15:57;20.10;93.90
13086;DHT22;6609;49.882;8.664;2023-05-09T16:18:23;20.00;94.00
13086;DHT22;6609;49.882;8.664;2023-05-09T16:25:46;20.00;94.80
13086;DHT22;6609;49.882;8.664;2023-05-09T16:30:43;19.90;95.00
13086;DHT22;6609;49.882;8.664;2023-05-09T16:35:37;19.70;94.90
13086;DHT22;6609;49.882;8.664;2023-05-09T16:38:04;19.70;95.10
13086;DHT22;6609;49.882;8.664;2023-05-09T16:40:31;19.60;95.50
13086;DHT22;6609;49.882;8.664;2023-05-09T16:42:59;19.60;95.80
13086;DHT22;6609;49.882;8.664;2023-05-09T16:45:26;19.50;95.90
13086;DHT22;6609;49.882;8.664;2023-05-09T16:47:52;19.50;96.20
13086;DHT22;6609;49.882;8.664;2023-05-09T16:50:19;19.50;96.30
13086;DHT22;6609;49.882;8.664;2023-05-09T16:52:46;19.40;96.40
13086;DHT22;6609;49.882;8.664;2023-05-09T16:57:40;19.40;96.60
13086;DHT22;6609;49.882;8.664;2023-05-09T17:00:09;19.50;96.70
13086;DHT22;6609;49.882;8.664;2023-05-09T17:05:03;19.50;96.80
13086;DHT22;6609;49.882;8.664;2023-05-09T17:12:25;19.40;97.00
13086;DHT22;6609;49.882;8.664;2023-05-09T17:17:20;19.40;97.00
13086;DHT22;6609;49.882;8.664;2023-05-09T17:27:08;19.10;97.10
13086;DHT22;6609;49.882;8.664;2023-05-09T17:29:35;18.90;97.30
13086;DHT22;6609;49.882;8.664;2023-05-09T17:32:02;18.90;97.30
13086;DHT22;6609;49.882;8.664;2023-05-09T17:34:30;18.80;97.10
13086;DHT22;6609;49.882;8.664;2023-05-09T17:51:43;18.70;96.50
13086;DHT22;6609;49.882;8.664;2023-05-09T17:56:37;18.60;96.30
13086;DHT22;6609;49.882;8.664;2023-05-09T18:01:31;18.40;96.30
13086;DHT22;6609;49.882;8.664;2023-05-09T18:08:53;18.20;96.30
13086;DHT22;6609;49.882;8.664;2023-05-09T18:18:41;18.20;96.50
13086;DHT22;6609;49.882;8.664;2023-05-09T18:26:04;17.80;96.70
13086;DHT22;6609;49.882;8.664;2023-05-09T18:28:31;17.80;97.00
13086;DHT22;6609;49.882;8.664;2023-05-09T18:31:04;17.90;97.10
13086;DHT22;6609;49.882;8.664;2023-05-09T18:33:31;17.80;97.00
13086;DHT22;6609;49.882;8.664;2023-05-09T18:38:28;17.80;97.50
13086;DHT22;6609;49.882;8.664;2023-05-09T18:43:27;17.80;97.70
13086;DHT22;6609;49.882;8.664;2023-05-09T18:53:17;17.80;97.70
13086;DHT22;6609;49.882;8.664;2023-05-09T18:58:10;17.80;97.80
13086;DHT22;6609;49.882;8.664;2023-05-09T19:00:39;17.80;97.80
13086;DHT22;6609;49.882;8.664;2023-05-09T19:08:01;17.70;98.00
13086;DHT22;6609;49.882;8.664;2023-05-09T19:12:55;17.60;98.00
13086;DHT22;6609;49.882;8.664;2023-05-09T19:15:22;17.50;98.20
13086;DHT22;6609;49.882;8.664;2023-05-09T19:17:50;17.50;98.20
13086;DHT22;6609;49.882;8.664;2023-05-09T19:20:17;17.40;98.30
13086;DHT22;6609;49.882;8.664;2023-05-09T19:27:46;17.30;98.70
13086;DHT22;6609;49.882;8.664;2023-05-09T19:30:13;17.30;98.90
13086;DHT22;6609;49.882;8.664;2023-05-09T19:35:09;17.30;98.90
13086;DHT22;6609;49.882;8.664;2023-05-09T19:40:03;17.30;98.60
13086;DHT22;6609;49.882;8.664;2023-05-09T19:52:20;17.30;97.80
13086;DHT22;6609;49.882;8.664;2023-05-09T20:04:36;17.20;97.20
13086;DHT22;6609;49.882;8.664;2023-05-09T20:07:03;17.10;97.10
13086;DHT22;6609;49.882;8.664;2023-05-09T20:09:31;17.10;97.00
13086;DHT22;6609;49.882;8.664;2023-05-09T20:14:25;17.10;96.90
13086;DHT22;6609;49.882;8.664;2023-05-09T20:16:52;17.10;96.90
13086;DHT22;6609;49.882;8.664;2023-05-09T20:26:41;17.00;97.20
13086;DHT22;6609;49.882;8.664;2023-05-09T20:34:02;16.90;97.50
13086;DHT22;6609;49.882;8.664;2023-05-09T20:38:55;16.80;97.50
13086;DHT22;6609;49.882;8.664;2023-05-09T20:41:22;16.90;97.50
13086;DHT22;6609;49.882;8.664;2023-05-09T20:43:51;16.80;97.50
13086;DHT22;6609;49.882;8.664;2023-05-09T20:48:44;16.80;97.60
13086;DHT22;6609;49.882;8.664;2023-05-09T20:51:11;16.80;97.60
13086;DHT22;6609;49.882;8.664;2023-05-09T20:53:39;16.70;97.70
13086;DHT22;6609;49.882;8.664;2023-05-09T20:56:06;16.60;97.80
13086;DHT22;6609;49.882;8.664;2023-05-09T20:58:33;16.60;98.00
13086;DHT22;6609;49.882;8.664;2023-05-09T21:01:01;16.70;98.00
13086;DHT22;6609;49.882;8.664;2023-05-09T21:10:50;16.60;98.00
13086;DHT22;6609;49.882;8.664;2023-05-09T21:15:47;16.60;98.20
13086;DHT22;6609;49.882;8.664;2023-05-09T21:18:15;16.60;98.40
13086;DHT22;6609;49.882;8.664;2023-05-09T21:23:09;16.60;98.30
13086;DHT22;6609;49.882;8.664;2023-05-09T21:25:36;16.70;98.50
13086;DHT22;6609;49.882;8.664;2023-05-09T21:28:06;16.70;98.40
13086;DHT22;6609;49.882;8.664;2023-05-09T21:30:32;16.60;98.40
13086;DHT22;6609;49.882;8.664;2023-05-09T21:32:59;16.70;98.30
13086;DHT22;6609;49.882;8.664;2023-05-09T21:35:27;16.60;98.10
13086;DHT22;6609;49.882;8.664;2023-05-09T21:45:16;16.50;98.20
13086;DHT22;6609;49.882;8.664;2023-05-09T21:52:39;16.40;98.30
13086;DHT22;6609;49.882;8.664;2023-05-09T21:55:06;16.40;98.40
13086;DHT22;6609;49.882;8.664;2023-05-09T22:00:00;16.50;98.30
13086;DHT22;6609;49.882;8.664;2023-05-09T22:04:56;16.40;98.40
13086;DHT22;6609;49.882;8.664;2023-05-09T22:09:51;16.40;98.50
13086;DHT22;6609;49.882;8.664;2023-05-09T22:12:18;16.40;98.50
13086;DHT22;6609;49.882;8.664;2023-05-09T22:14:45;16.50;98.50
13086;DHT22;6609;49.882;8.664;2023-05-09T22:17:11;16.50;98.40
13086;DHT22;6609;49.882;8.664;2023-05-09T22:19:38;16.40;98.40
13086;DHT22;6609;49.882;8.664;2023-05-09T22:22:05;16.40;98.50
13086;DHT22;6609;49.882;8.664;2023-05-09T22:27:00;16.30;98.80
13086;DHT22;6609;49.882;8.664;2023-05-09T22:39:15;16.30;98.60
13086;DHT22;6609;49.882;8.664;2023-05-09T22:41:42;16.30;98.70
13086;DHT22;6609;49.882;8.664;2023-05-09T22:44:10;16.30;98.80
13086;DHT22;6609;49.882;8.664;2023-05-09T22:46:36;16.30;98.80
13086;DHT22;6609;49.882;8.664;2023-05-09T22:51:31;16.30;98.60